createdAt,value
2018-10-11T00:00:40.828Z,24.23
2018-10-11T00:03:09.628Z,24.37
2018-10-11T00:05:38.812Z,23.03
2018-10-11T00:08:08.191Z,22.60
2018-10-11T00:10:37.277Z,22.23
2018-10-11T00:13:05.887Z,22.80
2018-10-11T00:15:34.901Z,22.40
2018-10-11T00:18:03.919Z,22.00
2018-10-11T00:20:32.817Z,22.33
2018-10-11T00:23:01.452Z,22.27
2018-10-11T00:25:30.105Z,22.07
2018-10-11T00:27:58.781Z,22.33
2018-10-11T00:30:27.989Z,22.27
2018-10-11T00:32:57.530Z,22.03
2018-10-11T00:35:26.264Z,23.03
2018-10-11T00:37:55.289Z,21.97
2018-10-11T00:40:24.732Z,22.23
2018-10-11T00:42:53.536Z,21.30
2018-10-11T00:45:22.201Z,20.53
2018-10-11T00:47:50.927Z,21.47
2018-10-11T00:50:19.706Z,20.17
2018-10-11T00:52:49.134Z,20.97
2018-10-11T00:55:18.347Z,20.47
2018-10-11T00:57:46.936Z,20.60
2018-10-11T01:00:15.857Z,20.57
2018-10-11T01:02:44.371Z,21.70
2018-10-11T01:05:13.435Z,20.53
2018-10-11T01:07:42.153Z,20.77
2018-10-11T01:10:11.143Z,20.00
2018-10-11T01:12:40.729Z,20.20
2018-10-11T01:15:10.161Z,18.97
2018-10-11T01:17:38.897Z,19.47
2018-10-11T01:20:08.124Z,19.03
2018-10-11T01:22:37.204Z,20.17
2018-10-11T01:25:05.774Z,18.97
2018-10-11T01:27:34.543Z,19.07
2018-10-11T01:30:03.700Z,17.93
2018-10-11T01:32:32.466Z,18.03
2018-10-11T01:35:01.014Z,17.50
2018-10-11T01:37:29.777Z,16.67
2018-10-11T01:39:58.449Z,17.03
2018-10-11T01:42:28.332Z,17.27
2018-10-11T01:44:57.105Z,16.63
2018-10-11T01:47:26.226Z,16.73
2018-10-11T01:49:55.301Z,17.20
2018-10-11T01:52:24.023Z,16.57
2018-10-11T01:54:52.621Z,15.90
2018-10-11T01:57:21.270Z,17.33
2018-10-11T01:59:49.891Z,17.90
2018-10-11T02:02:18.904Z,16.87
2018-10-11T02:04:47.719Z,16.23
2018-10-11T02:07:16.794Z,16.63
2018-10-11T02:09:45.388Z,17.03
2018-10-11T02:12:14.283Z,15.60
2018-10-11T02:14:42.889Z,17.17
2018-10-11T02:17:11.978Z,16.23
2018-10-11T02:19:40.573Z,17.20
2018-10-11T02:22:09.377Z,15.80
2018-10-11T02:24:38.002Z,15.90
2018-10-11T02:27:07.561Z,15.20
2018-10-11T02:29:36.397Z,14.37
2018-10-11T02:32:05.131Z,14.20
2018-10-11T02:34:33.774Z,15.47
2018-10-11T02:37:02.321Z,15.20
2018-10-11T02:39:31.731Z,14.90
2018-10-11T02:42:00.323Z,16.60
2018-10-11T02:44:28.999Z,14.90
2018-10-11T02:46:57.581Z,14.43
2018-10-11T02:49:26.886Z,14.83
2018-10-11T02:51:56.691Z,14.17
2018-10-11T02:54:25.451Z,14.13
2018-10-11T02:56:59.479Z,13.40
2018-10-11T02:59:33.672Z,13.20
2018-10-11T03:02:10.056Z,13.57
2018-10-11T03:04:39.463Z,12.60
2018-10-11T03:07:10.251Z,12.83
2018-10-11T03:09:39.455Z,12.47
2018-10-11T03:12:08.405Z,12.43
2018-10-11T03:14:37.101Z,12.47
2018-10-11T03:17:06.067Z,12.47
2018-10-11T03:19:34.740Z,12.33
2018-10-11T03:22:03.864Z,11.47
2018-10-11T03:24:32.815Z,12.97
2018-10-11T03:27:01.699Z,11.70
2018-10-11T03:29:31.429Z,10.63
2018-10-11T03:32:00.126Z,10.63
2018-10-11T03:34:29.631Z,10.70
2018-10-11T03:36:59.200Z,10.33
2018-10-11T03:39:28.849Z,10.90
2018-10-11T03:41:58.550Z,9.67
2018-10-11T03:44:28.129Z,10.13
2018-10-11T03:46:57.043Z,9.63
2018-10-11T03:49:26.318Z,10.03
2018-10-11T03:51:54.936Z,9.83
2018-10-11T03:54:23.647Z,10.23
2018-10-11T03:56:52.271Z,10.47
2018-10-11T03:59:21.205Z,10.77
2018-10-11T04:01:50.648Z,11.50
2018-10-11T04:04:19.660Z,10.03
2018-10-11T04:06:48.256Z,9.97
2018-10-11T04:09:17.321Z,10.20
2018-10-11T04:11:45.900Z,9.97
2018-10-11T04:14:14.562Z,10.77
2018-10-11T04:16:43.402Z,10.80
2018-10-11T04:19:12.396Z,10.90
2018-10-11T04:21:40.994Z,10.90
2018-10-11T04:24:09.693Z,11.33
2018-10-11T04:26:38.273Z,11.30
2018-10-11T04:29:07.124Z,13.13
2018-10-11T04:31:35.786Z,12.27
2018-10-11T04:34:04.390Z,12.83
2018-10-11T04:36:33.081Z,12.87
2018-10-11T04:39:01.832Z,12.63
2018-10-11T04:41:30.619Z,13.23
2018-10-11T04:43:59.839Z,13.30
2018-10-11T04:46:28.496Z,13.30
2018-10-11T04:48:57.077Z,13.10
2018-10-11T04:51:25.657Z,16.07
2018-10-11T04:53:55.655Z,14.70
2018-10-11T04:56:25.802Z,13.97
2018-10-11T04:58:54.481Z,12.80
2018-10-11T05:01:23.175Z,12.23
2018-10-11T05:03:51.951Z,12.53
2018-10-11T05:06:20.562Z,12.83
2018-10-11T05:08:49.146Z,12.27
2018-10-11T05:11:18.003Z,14.13
2018-10-11T05:13:49.280Z,14.07
2018-10-11T05:16:18.146Z,12.40
2018-10-11T05:18:52.589Z,11.00
2018-10-11T05:21:21.245Z,11.50
2018-10-11T05:23:49.965Z,10.80
2018-10-11T05:26:18.638Z,9.87
2018-10-11T05:28:47.211Z,9.50
2018-10-11T05:31:16.568Z,9.97
2018-10-11T05:33:45.306Z,10.13
2018-10-11T05:36:14.424Z,9.80
2018-10-11T05:38:43.625Z,10.47
2018-10-11T05:41:13.018Z,9.30
2018-10-11T05:43:41.958Z,9.90
2018-10-11T05:46:17.864Z,9.63
2018-10-11T05:48:46.536Z,9.57
2018-10-11T05:51:15.651Z,10.43
2018-10-11T05:53:44.362Z,10.30
2018-10-11T05:56:13.000Z,11.90
2018-10-11T05:58:41.668Z,11.57
2018-10-11T06:01:10.288Z,13.10
2018-10-11T06:03:38.906Z,12.63
2018-10-11T06:06:07.518Z,12.87
2018-10-11T06:08:36.153Z,11.53
2018-10-11T06:11:05.444Z,11.23
2018-10-11T06:13:34.210Z,12.30
2018-10-11T06:16:03.163Z,10.80
2018-10-11T06:18:31.851Z,11.33
2018-10-11T06:21:00.500Z,10.43
2018-10-11T06:23:29.081Z,10.87
2018-10-11T06:25:57.920Z,9.57
2018-10-11T06:28:26.672Z,10.97
2018-10-11T06:30:55.337Z,9.37
2018-10-11T06:33:23.970Z,7.93
2018-10-11T06:35:52.671Z,7.50
2018-10-11T06:38:21.333Z,7.03
2018-10-11T06:40:49.970Z,6.50
2018-10-11T06:43:18.668Z,7.23
2018-10-11T06:45:47.861Z,7.43
2018-10-11T06:48:16.593Z,9.37
2018-10-11T06:50:46.142Z,7.97
2018-10-11T06:53:14.793Z,5.63
2018-10-11T06:55:43.331Z,6.53
2018-10-11T06:58:11.899Z,7.73
2018-10-11T07:00:40.459Z,7.00
2018-10-11T07:03:09.028Z,8.20
2018-10-11T07:05:37.566Z,5.20
2018-10-11T07:08:06.194Z,6.20
2018-10-11T07:10:34.769Z,5.13
2018-10-11T07:13:03.358Z,6.93
2018-10-11T07:15:31.906Z,5.10
2018-10-11T07:18:00.437Z,5.53
2018-10-11T07:20:29.055Z,5.20
2018-10-11T07:22:57.635Z,5.23
2018-10-11T07:25:26.223Z,4.37
2018-10-11T07:27:54.788Z,4.23
2018-10-11T07:30:23.394Z,5.33
2018-10-11T07:32:51.950Z,4.97
2018-10-11T07:35:20.602Z,4.70
2018-10-11T07:37:49.075Z,4.67
2018-10-11T07:40:17.684Z,5.67
2018-10-11T07:42:46.259Z,5.23
2018-10-11T07:45:14.895Z,4.80
2018-10-11T07:47:43.481Z,4.43
2018-10-11T07:50:11.899Z,4.00
2018-10-11T07:52:40.493Z,4.90
2018-10-11T07:55:09.127Z,3.93
2018-10-11T07:57:37.740Z,5.33
2018-10-11T08:00:06.965Z,4.83
2018-10-11T08:02:35.524Z,4.37
2018-10-11T08:05:04.100Z,3.50
2018-10-11T08:07:32.692Z,3.40
2018-10-11T08:10:01.275Z,3.30
2018-10-11T08:12:29.863Z,3.43
2018-10-11T08:14:58.450Z,3.50
2018-10-11T08:17:27.310Z,4.00
2018-10-11T08:19:55.655Z,4.37
2018-10-11T08:22:24.188Z,3.70
2018-10-11T08:24:52.828Z,3.90
2018-10-11T08:27:21.435Z,3.80
2018-10-11T08:29:49.938Z,4.43
2018-10-11T08:32:19.132Z,2.97
2018-10-11T08:34:47.633Z,3.80
2018-10-11T08:37:16.361Z,4.63
2018-10-11T08:39:45.111Z,3.20
2018-10-11T08:42:13.887Z,5.27
2018-10-11T08:44:42.600Z,4.17
2018-10-11T08:47:11.304Z,3.33
2018-10-11T08:49:39.971Z,3.50
2018-10-11T08:52:08.674Z,3.40
2018-10-11T08:54:49.960Z,4.30
2018-10-11T08:57:19.941Z,3.40
2018-10-11T08:59:48.700Z,3.13
2018-10-11T09:02:18.164Z,4.90
2018-10-11T09:04:47.150Z,3.47
2018-10-11T09:07:15.754Z,4.03
2018-10-11T09:09:45.149Z,4.03
2018-10-11T09:12:13.712Z,3.23
2018-10-11T09:14:42.292Z,3.60
2018-10-11T09:17:10.984Z,4.07
2018-10-11T09:22:14.658Z,3.33
2018-10-11T09:24:43.292Z,3.30
2018-10-11T09:27:11.847Z,3.30
2018-10-11T09:29:40.564Z,3.40
2018-10-11T09:32:09.373Z,3.17
2018-10-11T09:34:38.359Z,3.67
2018-10-11T09:37:07.152Z,3.50
2018-10-11T09:39:35.681Z,3.47
2018-10-11T09:42:04.366Z,3.80
2018-10-11T09:44:32.987Z,2.70
2018-10-11T09:47:01.600Z,4.27
2018-10-11T09:49:30.216Z,4.70
2018-10-11T09:51:58.809Z,4.90
2018-10-11T09:54:27.406Z,3.80
2018-10-11T09:57:30.440Z,3.37
2018-10-11T09:59:59.854Z,4.17
2018-10-11T10:02:29.350Z,2.30
2018-10-11T10:05:01.503Z,2.30
2018-10-11T10:07:30.514Z,2.57
2018-10-11T10:09:59.144Z,2.33
2018-10-11T10:12:27.810Z,3.13
2018-10-11T10:14:56.455Z,3.67
2018-10-11T10:17:25.178Z,2.40
2018-10-11T10:19:53.807Z,3.37
2018-10-11T10:22:22.437Z,2.40
2018-10-11T10:24:51.006Z,2.43
2018-10-11T10:27:19.651Z,2.30
2018-10-11T10:29:48.335Z,3.80
2018-10-11T10:32:16.936Z,3.97
2018-10-11T10:34:45.840Z,3.13
2018-10-11T10:37:14.786Z,3.37
2018-10-11T10:39:43.896Z,3.13
2018-10-11T10:42:12.612Z,2.30
2018-10-11T10:44:41.249Z,2.80
2018-10-11T10:47:10.225Z,2.37
2018-10-11T10:49:39.187Z,2.20
2018-10-11T10:52:07.778Z,2.10
2018-10-11T10:54:36.857Z,3.47
2018-10-11T10:57:06.338Z,2.10
2018-10-11T10:59:34.963Z,2.30
2018-10-11T11:02:03.520Z,2.77
2018-10-11T11:04:32.082Z,2.40
2018-10-11T11:07:00.681Z,2.83
2018-10-11T11:09:29.416Z,3.17
2018-10-11T11:11:58.163Z,3.03
2018-10-11T11:14:26.913Z,2.23
2018-10-11T11:16:55.597Z,2.53
2018-10-11T11:19:24.173Z,2.40
2018-10-11T11:21:52.760Z,3.83
2018-10-11T11:24:21.541Z,2.33
2018-10-11T11:26:50.119Z,2.10
2018-10-11T11:29:19.029Z,4.20
2018-10-11T11:31:47.659Z,2.33
2018-10-11T11:34:16.251Z,2.47
2018-10-11T11:36:45.086Z,2.63
2018-10-11T11:39:14.835Z,2.67
2018-10-11T11:41:43.474Z,2.70
2018-10-11T11:44:12.344Z,2.60
2018-10-11T11:46:40.927Z,1.90
2018-10-11T11:49:09.486Z,2.10
2018-10-11T11:51:38.029Z,1.80
2018-10-11T11:54:10.921Z,3.43
2018-10-11T11:56:39.465Z,2.23
2018-10-11T11:59:08.353Z,1.90
2018-10-11T12:01:37.373Z,3.10
2018-10-11T12:04:06.401Z,2.10
2018-10-11T12:06:34.995Z,2.73
2018-10-11T12:09:04.345Z,1.93
2018-10-11T12:11:32.967Z,1.80
2018-10-11T12:14:01.541Z,2.87
2018-10-11T12:16:30.409Z,2.07
2018-10-11T12:18:59.253Z,3.20
2018-10-11T12:21:28.210Z,2.13
2018-10-11T12:23:56.825Z,3.90
2018-10-11T12:26:25.479Z,2.50
2018-10-11T12:28:54.139Z,1.70
2018-10-11T12:31:22.641Z,2.03
2018-10-11T12:33:51.483Z,2.17
2018-10-11T12:36:20.413Z,3.00
2018-10-11T12:38:49.015Z,2.63
2018-10-11T12:41:17.690Z,2.13
2018-10-11T12:43:47.128Z,2.13
2018-10-11T12:46:15.065Z,1.63
2018-10-11T12:48:43.725Z,1.60
2018-10-11T12:51:12.363Z,1.77
2018-10-11T12:53:43.354Z,2.43
2018-10-11T12:56:09.677Z,4.07
2018-10-11T12:58:38.416Z,3.20
2018-10-11T13:01:07.091Z,1.80
2018-10-11T13:03:35.632Z,3.53
2018-10-11T13:06:04.411Z,2.13
2018-10-11T13:08:33.083Z,1.53
2018-10-11T13:11:01.712Z,2.10
2018-10-11T13:13:30.302Z,5.13
2018-10-11T13:16:05.037Z,2.47
2018-10-11T13:18:32.556Z,2.90
2018-10-11T13:21:02.711Z,1.87
2018-10-11T13:23:31.447Z,8.30
2018-10-11T13:26:00.130Z,8.60
2018-10-11T13:28:28.815Z,3.03
2018-10-11T13:30:57.415Z,3.33
2018-10-11T13:33:26.209Z,5.60
2018-10-11T13:35:55.817Z,2.70
2018-10-11T13:38:24.684Z,2.10
2018-10-11T13:40:55.814Z,2.20
2018-10-11T13:43:22.175Z,3.00
2018-10-11T13:45:53.405Z,2.87
2018-10-11T13:48:19.832Z,3.73
2018-10-11T13:50:48.593Z,2.83
2018-10-11T13:53:20.395Z,2.47
2018-10-11T13:55:52.435Z,2.30
2018-10-11T13:58:16.557Z,7.37
2018-10-11T14:00:45.257Z,1.63
2018-10-11T14:03:13.915Z,2.13
2018-10-11T14:05:42.565Z,1.70
2018-10-11T14:08:11.320Z,1.30
2018-10-11T14:10:40.055Z,4.37
2018-10-11T14:13:14.267Z,2.63
2018-10-11T14:15:37.555Z,1.63
2018-10-11T14:18:11.913Z,3.20
2018-10-11T14:20:38.069Z,2.37
2018-10-11T14:23:07.223Z,3.83
2018-10-11T14:25:39.216Z,1.60
2018-10-11T14:28:08.071Z,4.27
2018-10-11T14:30:37.798Z,1.97
2018-10-11T14:33:06.617Z,3.03
2018-10-11T14:35:35.632Z,2.87
2018-10-11T14:38:04.409Z,2.90
2018-10-11T14:40:33.544Z,3.53
2018-10-11T14:43:02.212Z,4.43
2018-10-11T14:45:32.221Z,3.53
2018-10-11T14:48:00.974Z,6.50
2018-10-11T14:50:30.662Z,3.67
2018-10-11T14:52:59.390Z,14.43
2018-10-11T14:55:28.125Z,3.30
2018-10-11T14:57:58.723Z,50.13
2018-10-11T15:00:27.603Z,1.50
2018-10-11T15:02:56.514Z,14.23
2018-10-11T15:05:25.247Z,3.80
2018-10-11T15:07:53.891Z,29.67
2018-10-11T15:10:22.698Z,20.37
2018-10-11T15:12:58.321Z,11.10
2018-10-11T15:15:27.156Z,21.90
2018-10-11T15:17:55.858Z,4.53
2018-10-11T15:20:24.680Z,27.60
2018-10-11T15:22:53.685Z,2.80
2018-10-11T15:25:22.375Z,3.00
2018-10-11T15:27:51.108Z,2.50
2018-10-11T15:30:19.783Z,2.57
2018-10-11T15:32:49.403Z,2.60
2018-10-11T15:35:18.143Z,2.70
2018-10-11T15:37:46.887Z,2.47
2018-10-11T15:40:15.591Z,2.57
2018-10-11T15:42:44.320Z,3.60
2018-10-11T15:45:13.125Z,2.07
2018-10-11T15:47:41.885Z,2.87
2018-10-11T15:50:10.576Z,4.83
2018-10-11T15:52:39.426Z,2.80
2018-10-11T15:55:08.073Z,4.67
2018-10-11T15:57:36.788Z,4.87
2018-10-11T16:00:05.884Z,2.63
2018-10-11T16:02:34.724Z,4.80
2018-10-11T16:05:03.593Z,2.23
2018-10-11T16:07:32.234Z,2.90
2018-10-11T16:10:01.053Z,8.63
2018-10-11T16:12:29.808Z,3.22
2018-10-11T16:14:59.390Z,1.83
2018-10-11T16:17:28.033Z,1.60
2018-10-11T16:19:56.784Z,2.57
2018-10-11T16:22:25.420Z,2.50
2018-10-11T16:24:54.186Z,3.33
2018-10-11T16:27:22.948Z,2.40
2018-10-11T16:29:51.719Z,3.00
2018-10-11T16:32:20.953Z,2.73
2018-10-11T16:34:49.602Z,1.80
2018-10-11T16:37:18.236Z,3.07
2018-10-11T16:39:46.988Z,5.93
2018-10-11T16:42:15.666Z,2.50
2018-10-11T16:44:44.524Z,3.47
2018-10-11T16:47:13.202Z,3.17
2018-10-11T16:49:41.940Z,4.77
2018-10-11T16:52:10.809Z,3.10
2018-10-11T16:54:43.363Z,2.53
2018-10-11T16:57:13.507Z,3.03
2018-10-11T16:59:42.286Z,3.50
2018-10-11T17:02:11.101Z,3.30
2018-10-11T17:04:39.854Z,2.90
2018-10-11T17:07:08.633Z,3.67
2018-10-11T17:09:37.380Z,4.13
2018-10-11T17:12:06.109Z,3.30
2018-10-11T17:14:34.732Z,2.60
2018-10-11T17:17:03.575Z,2.50
2018-10-11T17:19:32.236Z,3.00
2018-10-11T17:22:00.932Z,4.47
2018-10-11T17:24:30.129Z,7.47
2018-10-11T17:26:58.910Z,5.70
2018-10-11T17:29:27.722Z,4.43
2018-10-11T17:31:56.459Z,2.97
2018-10-11T17:34:33.449Z,4.30
2018-10-11T17:37:02.168Z,4.27
2018-10-11T17:39:30.906Z,5.40
2018-10-11T17:41:59.703Z,5.00
2018-10-11T17:44:28.333Z,5.80
2018-10-11T17:46:57.069Z,6.13
2018-10-11T17:49:25.696Z,6.93
2018-10-11T17:51:54.385Z,8.03
2018-10-11T17:54:23.115Z,5.47
2018-10-11T17:56:59.885Z,6.53
2018-10-11T17:59:28.638Z,7.23
2018-10-11T18:01:57.452Z,8.27
2018-10-11T18:04:29.245Z,8.63
2018-10-11T18:06:57.991Z,6.90
2018-10-11T18:09:28.029Z,4.67
2018-10-11T18:11:56.816Z,3.93
2018-10-11T18:14:25.588Z,4.73
2018-10-11T18:16:59.007Z,4.53
2018-10-11T18:19:27.842Z,4.37
2018-10-11T18:21:56.550Z,5.23
2018-10-11T18:24:25.420Z,4.93
2018-10-11T18:26:54.285Z,4.40
2018-10-11T18:29:23.188Z,3.77
2018-10-11T18:31:52.203Z,3.87
2018-10-11T18:34:21.400Z,4.10
2018-10-11T18:36:50.331Z,3.40
2018-10-11T18:39:19.159Z,4.53
2018-10-11T18:41:48.056Z,3.30
2018-10-11T18:44:18.202Z,3.33
2018-10-11T18:46:46.914Z,3.47
2018-10-11T18:49:15.759Z,4.23
2018-10-11T18:51:48.051Z,3.33
2018-10-11T18:54:17.340Z,3.43
2018-10-11T18:56:47.882Z,3.80
2018-10-11T18:59:18.300Z,3.90
2018-10-11T19:01:48.357Z,4.03
2018-10-11T19:04:17.192Z,4.43
2018-10-11T19:06:47.135Z,3.40
2018-10-11T19:09:16.579Z,3.53
2018-10-11T19:11:46.349Z,4.10
2018-10-11T19:14:15.012Z,8.57
2018-10-11T19:16:44.709Z,4.10
2018-10-11T19:19:14.046Z,3.70
2018-10-11T19:21:43.984Z,3.40
2018-10-11T19:24:14.790Z,3.93
2018-10-11T19:26:44.552Z,4.50
2018-10-11T19:29:13.928Z,4.03
2018-10-11T19:31:43.683Z,5.37
2018-10-11T19:34:13.781Z,6.83
2018-10-11T19:36:43.083Z,5.50
2018-10-11T19:39:13.505Z,3.87
2018-10-11T19:41:43.194Z,3.43
2018-10-11T19:44:13.351Z,4.03
2018-10-11T19:46:43.276Z,6.73
2018-10-11T19:49:12.366Z,6.60
2018-10-11T19:51:41.864Z,4.77
2018-10-11T19:54:11.620Z,3.60
2018-10-11T19:56:41.838Z,4.30
2018-10-11T19:59:11.561Z,4.57
2018-10-11T20:01:40.832Z,3.83
2018-10-11T20:04:10.898Z,4.27
2018-10-11T20:06:42.115Z,5.07
2018-10-11T20:09:11.946Z,5.60
2018-10-11T20:11:41.329Z,4.40
2018-10-11T20:14:11.010Z,5.23
2018-10-11T20:16:40.813Z,4.23
2018-10-11T20:19:10.023Z,4.53
2018-10-11T20:21:39.460Z,4.23
2018-10-11T20:24:10.974Z,4.03
2018-10-11T20:26:41.611Z,3.47
2018-10-11T20:29:11.370Z,2.53
2018-10-11T20:31:40.773Z,2.57
2018-10-11T20:34:10.449Z,4.80
2018-10-11T20:36:40.661Z,2.33
2018-10-11T20:39:10.542Z,2.47
2018-10-11T20:41:41.393Z,2.53
2018-10-11T20:44:11.245Z,3.83
2018-10-11T20:46:41.477Z,2.23
2018-10-11T20:50:14.455Z,2.17
2018-10-11T20:52:43.389Z,2.13
2018-10-11T20:55:13.174Z,1.90
2018-10-11T20:57:43.397Z,2.20
2018-10-11T21:00:12.388Z,2.30
2018-10-11T21:02:42.021Z,2.40
2018-10-11T21:05:18.743Z,2.77
2018-10-11T21:07:49.411Z,2.60
2018-10-11T21:10:18.804Z,2.87
2018-10-11T21:12:47.814Z,4.90
2018-10-11T21:15:17.051Z,4.43
2018-10-11T21:17:47.524Z,4.40
2018-10-11T21:20:17.770Z,2.60
2018-10-11T21:22:48.193Z,3.93
2018-10-11T21:25:18.433Z,3.70
2018-10-11T21:27:47.710Z,3.03
2018-10-11T21:30:16.328Z,3.27
2018-10-11T21:32:45.338Z,4.30
2018-10-11T21:35:14.093Z,4.70
2018-10-11T21:37:43.268Z,5.87
2018-10-11T21:40:12.005Z,3.30
2018-10-11T21:42:41.300Z,3.20
2018-10-11T21:45:09.873Z,4.17
2018-10-11T21:47:38.920Z,3.47
2018-10-11T21:50:08.252Z,3.27
2018-10-11T21:57:13.192Z,4.33
2018-10-11T21:59:42.191Z,4.33
2018-10-11T22:02:10.901Z,3.93
2018-10-11T22:04:41.348Z,3.13
2018-10-11T22:07:12.166Z,3.50
2018-10-11T22:09:44.349Z,3.30
2018-10-11T22:12:14.299Z,3.00
2018-10-11T22:14:43.029Z,3.27
2018-10-11T22:17:11.792Z,2.83
2018-10-11T22:19:40.991Z,4.20
2018-10-11T22:22:10.772Z,2.63
2018-10-11T22:24:40.605Z,3.50
2018-10-11T22:27:14.807Z,2.97
2018-10-11T22:29:43.487Z,1.53
2018-10-11T22:32:13.802Z,2.13
2018-10-11T22:34:43.911Z,2.03
2018-10-11T22:37:13.758Z,1.77
2018-10-11T22:39:43.830Z,2.10
2018-10-11T22:42:12.747Z,2.53
2018-10-11T22:44:42.675Z,2.40
2018-10-11T22:47:11.343Z,2.60
2018-10-11T22:49:40.683Z,3.00
2018-10-11T22:52:11.197Z,1.33
2018-10-11T22:54:40.331Z,2.23
2018-10-11T22:57:10.652Z,1.23
2018-10-11T22:59:39.458Z,1.90
2018-10-11T23:02:08.535Z,1.63
2018-10-11T23:04:38.618Z,2.57
2018-10-11T23:07:09.914Z,2.47
2018-10-11T23:09:39.957Z,2.20
2018-10-11T23:12:12.058Z,2.03
2018-10-11T23:14:43.251Z,1.70
2018-10-11T23:17:11.920Z,2.20
2018-10-11T23:19:41.454Z,2.07
2018-10-11T23:22:10.018Z,4.27
2018-10-11T23:24:39.690Z,3.73
2018-10-11T23:27:09.119Z,3.50
2018-10-11T23:29:39.842Z,2.27
2018-10-11T23:32:09.382Z,2.87
2018-10-11T23:34:38.198Z,3.17
2018-10-11T23:37:08.330Z,2.47
2018-10-11T23:39:37.135Z,2.73
2018-10-11T23:42:06.701Z,2.43
2018-10-11T23:44:35.583Z,3.13
2018-10-11T23:47:06.424Z,2.27
2018-10-11T23:49:38.213Z,3.43
2018-10-11T23:52:08.027Z,2.80
2018-10-11T23:54:37.412Z,3.40
2018-10-11T23:57:09.074Z,5.90
2018-10-11T23:59:37.915Z,2.43
